createdAt,value
2019-06-07T00:02:16.548Z,101204.89
2019-06-07T00:07:23.443Z,101190.77
2019-06-07T00:12:30.431Z,101190.77
2019-06-07T00:17:37.599Z,101194.72
2019-06-07T00:22:44.475Z,101184.66
2019-06-07T00:27:51.567Z,101184.66
2019-06-07T00:32:58.446Z,101186.11
2019-06-07T00:38:05.440Z,101186.11
2019-06-07T00:43:15.165Z,101196.63
2019-06-07T00:48:29.371Z,101201.83
2019-06-07T00:53:32.502Z,101190.75
2019-06-07T00:58:39.747Z,101190.53
2019-06-07T01:03:47.274Z,101190.53
2019-06-07T01:08:54.419Z,101181.88
2019-06-07T01:14:01.451Z,101190.70
2019-06-07T01:19:08.859Z,101190.29
2019-06-07T01:24:19.908Z,101183.42
2019-06-07T01:29:30.753Z,101187.77
2019-06-07T01:34:36.252Z,101189.63
2019-06-07T01:39:43.573Z,101170.85
2019-06-07T01:44:51.259Z,101191.19
2019-06-07T01:49:58.463Z,101197.13
2019-06-07T01:55:06.393Z,101197.13
2019-06-07T02:00:17.417Z,101186.74
2019-06-07T02:05:30.936Z,101194.28
2019-06-07T02:10:37.398Z,101187.25
2019-06-07T02:15:44.441Z,101196.09
2019-06-07T02:20:51.564Z,101216.12
2019-06-07T02:25:58.431Z,101234.78
2019-06-07T02:31:05.560Z,101230.64
2019-06-07T02:36:12.534Z,101231.81
2019-06-07T02:41:22.927Z,101215.72
2019-06-07T02:46:40.104Z,101214.19
2019-06-07T02:51:41.682Z,101219.52
2019-06-07T02:56:58.025Z,101219.52
2019-06-07T03:01:58.579Z,101238.31
2019-06-07T03:07:06.048Z,101226.73
2019-06-07T03:12:15.244Z,101226.73
2019-06-07T03:17:48.739Z,101239.52
2019-06-07T03:22:57.055Z,101242.82
2019-06-07T03:28:04.518Z,101253.91
2019-06-07T03:33:11.515Z,101256.84
2019-06-07T03:38:18.506Z,101267.87
2019-06-07T03:43:27.307Z,101268.20
2019-06-07T03:48:36.406Z,101263.47
2019-06-07T03:53:43.392Z,101262.52
2019-06-07T03:58:50.746Z,101268.13
2019-06-07T04:03:57.568Z,101283.20
2019-06-07T04:09:05.297Z,101280.80
2019-06-07T04:14:11.312Z,101292.20
2019-06-07T04:19:18.440Z,101281.73
2019-06-07T04:24:25.461Z,101293.07
2019-06-07T04:29:41.360Z,101289.40
2019-06-07T04:34:43.148Z,101294.09
2019-06-07T04:39:51.925Z,101301.23
2019-06-07T04:45:01.369Z,101296.40
2019-06-07T04:50:09.621Z,101291.30
2019-06-07T04:55:16.578Z,101278.67
2019-06-07T05:00:49.900Z,101273.08
2019-06-07T05:05:43.539Z,101273.08
2019-06-07T05:10:49.427Z,101280.14
2019-06-07T05:15:56.559Z,101272.38
2019-06-07T05:21:03.521Z,101286.23
2019-06-07T05:26:10.443Z,101286.23
2019-06-07T05:31:17.530Z,101292.02
2019-06-07T05:36:25.432Z,101288.59
2019-06-07T05:41:34.165Z,101294.31
2019-06-07T05:46:46.785Z,101290.87
2019-06-07T05:51:50.548Z,101295.47
2019-06-07T05:56:58.840Z,101291.61
2019-06-07T06:02:21.716Z,101291.61
2019-06-07T06:07:15.764Z,101287.52
2019-06-07T06:12:34.634Z,101297.39
2019-06-07T06:17:31.474Z,101298.34
2019-06-07T06:22:43.424Z,101287.63
2019-06-07T06:28:11.097Z,101291.72
2019-06-07T06:32:58.386Z,101299.39
2019-06-07T06:38:05.594Z,101302.23
2019-06-07T06:43:13.500Z,101301.70
2019-06-07T06:48:21.455Z,101301.70
2019-06-07T06:53:28.456Z,101294.59
2019-06-07T06:59:18.456Z,101303.01
2019-06-07T07:04:03.577Z,101289.44
2019-06-07T07:08:53.635Z,101288.77
2019-06-07T07:14:01.859Z,101286.17
2019-06-07T07:19:08.890Z,101286.17
2019-06-07T07:24:21.613Z,101273.28
2019-06-07T07:29:26.076Z,101273.28
2019-06-07T07:34:36.885Z,101291.74
2019-06-07T07:39:45.298Z,101289.86
2019-06-07T07:44:54.613Z,101289.11
2019-06-07T07:50:01.494Z,101290.41
2019-06-07T07:55:09.141Z,101293.01
2019-06-07T08:00:49.364Z,101295.23
2019-06-07T08:05:39.968Z,101288.79
2019-06-07T08:10:34.434Z,101285.11
2019-06-07T08:15:42.655Z,101277.85
2019-06-07T08:21:08.649Z,101278.38
2019-06-07T08:26:01.042Z,101278.38
2019-06-07T08:31:08.561Z,101299.30
2019-06-07T08:36:25.118Z,101288.03
2019-06-07T08:41:24.437Z,101283.48
2019-06-07T08:46:32.445Z,101290.27
2019-06-07T08:51:39.494Z,101291.33
2019-06-07T08:56:46.451Z,101285.36
2019-06-07T09:01:58.415Z,101288.17
2019-06-07T09:07:18.114Z,101284.64
2019-06-07T09:12:11.916Z,101261.58
2019-06-07T09:17:19.387Z,101261.59
2019-06-07T09:22:26.433Z,101263.69
2019-06-07T09:27:33.477Z,101251.72
2019-06-07T09:32:40.567Z,101254.53
2019-06-07T09:38:07.713Z,101247.43
2019-06-07T09:43:47.929Z,101248.03
2019-06-07T09:48:11.569Z,101244.50
2019-06-07T09:53:22.289Z,101241.55
2019-06-07T10:03:33.451Z,101244.63
2019-06-07T10:13:53.575Z,101245.34
2019-06-07T10:19:01.607Z,101251.48
2019-06-07T10:24:09.751Z,101251.48
2019-06-07T10:29:16.691Z,101244.52
2019-06-07T10:34:23.577Z,101228.76
2019-06-07T10:39:30.447Z,101228.76
2019-06-07T10:44:37.478Z,101231.83
2019-06-07T10:49:46.236Z,101221.60
2019-06-07T10:54:53.574Z,101222.81
2019-06-07T11:00:00.458Z,101213.55
2019-06-07T11:05:10.115Z,101213.55
2019-06-07T11:10:19.997Z,101207.06
2019-06-07T11:15:26.433Z,101207.61
2019-06-07T11:20:33.538Z,101197.05
2019-06-07T11:25:40.564Z,101200.34
2019-06-07T11:30:48.707Z,101191.31
2019-06-07T11:35:55.569Z,101188.03
2019-06-07T11:41:02.469Z,101187.30
2019-06-07T11:46:09.463Z,101180.67
2019-06-07T11:51:16.449Z,101169.31
2019-06-07T11:56:23.445Z,101168.50
2019-06-07T12:01:30.463Z,101165.52
2019-06-07T12:06:37.515Z,101158.70
2019-06-07T12:11:45.236Z,101154.16
2019-06-07T12:16:52.448Z,101151.71
2019-06-07T12:21:59.444Z,101142.23
2019-06-07T12:27:07.227Z,101129.89
2019-06-07T12:32:15.623Z,101123.75
2019-06-07T12:37:32.768Z,101110.39
2019-06-07T12:42:30.291Z,101110.39
2019-06-07T12:47:37.555Z,101112.20
2019-06-07T12:52:44.446Z,101101.89
2019-06-07T12:57:51.607Z,101095.97
2019-06-07T13:02:58.512Z,101078.86
2019-06-07T13:08:05.568Z,101078.86
2019-06-07T13:13:12.589Z,101066.22
2019-06-07T13:18:21.245Z,101068.66
2019-06-07T13:23:28.546Z,101068.66
2019-06-07T13:28:36.743Z,101062.92
2019-06-07T13:33:46.021Z,101048.52
2019-06-07T13:38:53.247Z,101048.52
2019-06-07T13:44:00.406Z,101037.70
2019-06-07T13:49:08.439Z,101033.25
2019-06-07T13:54:16.578Z,101018.48
2019-06-07T13:59:24.561Z,101008.74
2019-06-07T14:04:31.468Z,101010.55
2019-06-07T14:09:38.444Z,101010.55
2019-06-07T14:14:45.440Z,100991.59
2019-06-07T14:19:52.480Z,100991.59
2019-06-07T14:24:59.860Z,100980.88
2019-06-07T14:30:11.676Z,100973.08
2019-06-07T14:35:19.875Z,100966.66
2019-06-07T14:40:28.025Z,100968.27
2019-06-07T14:45:35.439Z,100968.27
2019-06-07T14:50:42.593Z,100963.09
2019-06-07T14:55:51.110Z,100955.98
2019-06-07T15:00:58.439Z,100955.98
2019-06-07T15:06:05.442Z,100955.02
2019-06-07T15:11:12.452Z,100939.19
2019-06-07T15:16:19.456Z,100941.94
2019-06-07T15:21:26.723Z,100941.35
2019-06-07T15:26:34.558Z,100935.61
2019-06-07T15:31:41.458Z,100939.30
2019-06-07T15:36:49.270Z,100939.30
2019-06-07T15:41:56.453Z,100938.59
2019-06-07T15:47:03.605Z,100936.33
2019-06-07T15:52:10.585Z,100921.88
2019-06-07T15:57:17.455Z,100922.44
2019-06-07T16:02:24.510Z,100922.44
2019-06-07T16:07:32.012Z,100928.35
2019-06-07T16:12:40.794Z,100917.29
2019-06-07T16:17:47.291Z,100917.29
2019-06-07T16:22:54.580Z,100912.99
2019-06-07T16:28:01.533Z,100922.51
2019-06-07T16:33:08.566Z,100922.51
2019-06-07T16:38:15.528Z,100914.92
2019-06-07T16:43:22.858Z,100914.92
2019-06-07T16:48:29.650Z,100887.94
2019-06-07T16:53:38.186Z,100895.16
2019-06-07T16:58:46.506Z,100895.16
2019-06-07T17:03:53.475Z,100896.38
2019-06-07T17:09:00.456Z,100898.39
2019-06-07T17:14:08.573Z,100891.66
2019-06-07T17:19:15.617Z,100893.39
2019-06-07T17:24:26.583Z,100897.41
2019-06-07T17:29:32.115Z,100891.47
2019-06-07T17:34:39.881Z,100898.82
2019-06-07T17:39:48.719Z,100892.70
2019-06-07T17:44:56.627Z,100892.88
2019-06-07T17:50:03.897Z,100893.79
2019-06-07T17:55:13.058Z,100893.79
2019-06-07T18:00:29.376Z,100896.23
2019-06-07T18:05:30.416Z,100901.49
2019-06-07T18:10:39.670Z,100894.25
2019-06-07T18:15:51.760Z,100884.14
2019-06-07T18:20:57.606Z,100884.14
2019-06-07T18:26:04.610Z,100878.47
2019-06-07T18:31:11.673Z,100877.30
2019-06-07T18:38:11.679Z,100878.27
2019-06-07T18:43:18.473Z,100869.34
2019-06-07T18:48:25.623Z,100869.34
2019-06-07T18:53:35.301Z,100867.32
2019-06-07T18:58:43.622Z,100867.32
2019-06-07T19:03:52.021Z,100866.08
2019-06-07T19:08:59.614Z,100866.50
2019-06-07T19:14:07.259Z,100874.16
2019-06-07T19:19:13.595Z,100873.94
2019-06-07T19:24:22.587Z,100877.52
2019-06-07T19:29:31.436Z,100878.61
2019-06-07T19:34:42.123Z,100861.23
2019-06-07T19:39:49.595Z,100850.98
2019-06-07T19:45:09.645Z,100869.47
2019-06-07T19:50:07.943Z,100869.38
2019-06-07T19:55:15.593Z,100869.38
2019-06-07T20:00:23.495Z,100877.43
2019-06-07T20:05:33.737Z,100877.43
2019-06-07T20:10:40.613Z,100885.53
2019-06-07T20:15:49.176Z,100888.75
2019-06-07T20:20:58.539Z,100888.75
2019-06-07T20:26:06.811Z,100898.05
2019-06-07T20:31:13.677Z,100899.25
2019-06-07T20:36:20.683Z,100911.45
2019-06-07T20:41:27.593Z,100904.65
2019-06-07T20:46:35.672Z,100906.98
2019-06-07T20:51:42.590Z,100907.78
2019-06-07T20:56:49.604Z,100913.63
2019-06-07T21:01:56.618Z,100900.96
2019-06-07T21:07:05.438Z,100912.58
2019-06-07T21:12:12.619Z,100912.58
2019-06-07T21:17:19.626Z,100902.69
2019-06-07T21:22:26.594Z,100905.36
2019-06-07T21:27:34.733Z,100906.23
2019-06-07T21:32:43.622Z,100906.23
2019-06-07T21:37:51.690Z,100908.37
2019-06-07T21:42:58.604Z,100910.89
2019-06-07T21:48:07.077Z,100917.88
2019-06-07T21:53:15.463Z,100928.27
2019-06-07T21:58:27.614Z,100928.27
2019-06-07T22:03:34.632Z,100933.67
2019-06-07T22:08:42.255Z,100946.44
2019-06-07T22:13:48.390Z,100946.44
2019-06-07T22:18:55.733Z,100934.92
2019-06-07T22:24:02.854Z,100950.86
2019-06-07T22:29:12.414Z,100960.80
2019-06-07T22:34:19.456Z,100947.67
2019-06-07T22:39:26.537Z,100954.77
2019-06-07T22:44:33.605Z,100953.05
2019-06-07T22:49:42.453Z,100952.50
2019-06-07T22:54:49.446Z,100936.93
2019-06-07T22:59:57.912Z,100932.50
2019-06-07T23:05:04.993Z,100930.29
2019-06-07T23:10:11.451Z,100929.64
2019-06-07T23:15:21.585Z,100932.48
2019-06-07T23:20:29.526Z,100935.20
2019-06-07T23:25:38.578Z,100935.20
2019-06-07T23:30:45.578Z,100926.33
2019-06-07T23:35:52.576Z,100918.69
2019-06-07T23:40:59.446Z,100932.59
2019-06-07T23:46:06.573Z,100932.59
2019-06-07T23:51:13.603Z,100936.10
2019-06-07T23:56:22.381Z,100931.31
